| time (UTC) | temp F | wind direction | speed MPH | gust MPH | rain 1hr in | rain 24hr in | rain mn in | humidity % | barometer mb |
| 20260831084551 | 0 | 0.0 | 0.0 | 0.00 | 0.06 | 0.00 | 1014.9 | ||
| 20260831083046 | 0 | 0.0 | 0.0 | 0.00 | 0.06 | 0.00 | 1014.9 | ||
| 20260831081542 | 0 | 0.0 | 0.0 | 0.00 | 0.06 | 0.00 | 1015.0 | ||
| 20260831080052 | 0 | 0.0 | 0.0 | 0.00 | 0.06 | 0.00 | 1015.2 | ||
| 20260831074533 | 0 | 0.0 | 0.0 | 0.00 | 0.06 | 0.00 | 1015.3 | ||
| 20260831073032 | 0 | 0.0 | 0.0 | 0.00 | 0.06 | 0.00 | 1015.4 | ||
| 20260831071527 | 79 | 341 | 0.0 | 0.0 | 0.00 | 0.06 | 0.00 | 93 | 1015.4 |
| 20260831070030 | 79 | 340 | 0.0 | 0.0 | 0.00 | 0.06 | 0.00 | 93 | 1015.3 |
| 20260831064525 | 79 | 340 | 0.0 | 0.0 | 0.00 | 0.06 | 0.00 | 93 | 1015.4 |
| 20260831063023 | 79 | 342 | 0.0 | 0.0 | 0.00 | 0.06 | 0.00 | 93 | 1015.4 |
| 20260831061521 | 79 | 341 | 0.0 | 0.0 | 0.00 | 0.06 | 0.00 | 93 | 1015.5 |
| 20260831060018 | 79 | 341 | 0.0 | 0.0 | 0.00 | 0.06 | 0.00 | 93 | 1016.0 |
| 20260831054516 | 79 | 340 | 0.0 | 0.0 | 0.00 | 0.06 | 0.00 | 93 | 1016.3 |
| 20260831053116 | 79 | 340 | 0.0 | 0.0 | 0.00 | 0.06 | 0.00 | 94 | 1016.5 |
| 20260831051550 | 78 | 340 | 0.0 | 0.0 | 0.00 | 0.06 | 0.00 | 93 | 1016.6 |
| 20260831050049 | 78 | 341 | 0.0 | 0.0 | 0.00 | 0.06 | 0.00 | 93 | 1016.6 |
| 20260831044549 | 78 | 341 | 0.0 | 0.0 | 0.00 | 0.06 | 0.00 | 93 | 1016.6 |
| 20260831043043 | 78 | 341 | 0.0 | 0.0 | 0.00 | 0.06 | 0.00 | 93 | 1016.8 |
| 20260831041558 | 78 | 342 | 0.0 | 0.0 | 0.00 | 0.06 | 0.00 | 93 | 1016.9 |
| 20260831040037 | 78 | 341 | 0.0 | 0.0 | 0.00 | 0.06 | 0.00 | 93 | 1017.0 |
| 20260831034536 | 78 | 342 | 0.0 | 0.0 | 0.00 | 0.06 | 0.06 | 93 | 1017.0 |
| 20260831033036 | 78 | 341 | 0.0 | 0.0 | 0.00 | 0.06 | 0.06 | 93 | 1017.2 |
| 20260831031542 | 78 | 341 | 0.0 | 0.0 | 0.00 | 0.06 | 0.06 | 93 | 1017.3 |
| 20260831030035 | 78 | 330 | 0.0 | 0.0 | 0.00 | 0.06 | 0.06 | 93 | 1017.1 |
| 20260831024539 | 78 | 9 | 0.0 | 0.0 | 0.00 | 0.06 | 0.06 | 93 | 1017.1 |
| 20260831023034 | 78 | 9 | 0.0 | 0.0 | 0.00 | 0.06 | 0.06 | 93 | 1017.1 |
| 20260831021533 | 78 | 9 | 0.0 | 0.0 | 0.00 | 0.06 | 0.06 | 93 | 1016.9 |
| 20260831020035 | 78 | 356 | 0.0 | 0.0 | 0.00 | 0.06 | 0.06 | 93 | 1016.9 |
| 20260831014532 | 78 | 355 | 0.0 | 0.0 | 0.00 | 0.06 | 0.06 | 93 | 1016.9 |
| 20260831013032 | 78 | 359 | 0.0 | 0.0 | 0.00 | 0.06 | 0.06 | 93 | 1016.9 |
| 20260831011532 | 78 | 1 | 0.0 | 1.0 | 0.00 | 0.06 | 0.06 | 93 | 1016.8 |
| 20260831010035 | 77 | 359 | 0.0 | 0.0 | 0.00 | 0.06 | 0.06 | 93 | 1016.8 |
| 20260831004530 | 77 | 360 | 0.0 | 0.0 | 0.00 | 0.06 | 0.06 | 93 | 1016.7 |
| 20260831003029 | 78 | 360 | 0.0 | 0.0 | 0.00 | 0.06 | 0.06 | 93 | 1016.6 |
| 20260831001529 | 78 | 360 | 0.0 | 0.0 | 0.00 | 0.06 | 0.06 | 93 | 1016.6 |
| 20260831000029 | 78 | 18 | 0.0 | 0.0 | 0.00 | 0.06 | 0.06 | 93 | 1016.6 |
| 20260830234540 | 78 | 345 | 0.0 | 0.0 | 0.00 | 0.06 | 0.06 | 93 | 1016.4 |
| 20260830233027 | 79 | 349 | 0.0 | 0.0 | 0.00 | 0.06 | 0.06 | 93 | 1016.2 |
| 20260830231527 | 79 | 39 | 0.0 | 0.0 | 0.00 | 0.06 | 0.06 | 93 | 1015.8 |
| 20260830230031 | 79 | 72 | 0.0 | 0.0 | 0.00 | 0.06 | 0.06 | 93 | 1015.5 |
| 20260830224526 | 78 | 335 | 0.0 | 0.0 | 0.01 | 0.06 | 0.06 | 93 | 1015.7 |
| 20260830223026 | 78 | 1 | 0.0 | 0.0 | 0.04 | 0.06 | 0.06 | 93 | 1016.0 |
| 20260830221530 | 78 | 357 | 0.0 | 0.0 | 0.06 | 0.06 | 0.06 | 93 | 1016.1 |
| 20260830220025 | 78 | 15 | 0.0 | 0.0 | 0.06 | 0.06 | 0.06 | 92 | 1016.1 |
| 20260830214525 | 78 | 248 | 0.0 | 0.0 | 0.05 | 0.05 | 0.05 | 91 | 1016.1 |
| 20260830213022 | 81 | 205 | 0.0 | 0.0 | 0.02 | 0.02 | 0.02 | 87 | 1016.4 |
| 20260830211520 | 84 | 245 | 0.0 | 0.0 | 0.00 | 0.00 | 0.00 | 81 | 1016.1 |
| 20260830210019 | 86 | 276 | 0.0 | 1.0 | 0.00 | 0.00 | 0.00 | 78 | 1015.6 |
| 20260830204531 | 89 | 312 | 0.0 | 1.0 | 0.00 | 0.00 | 0.00 | 74 | 1015.7 |
| 20260830203016 | 90 | 58 | 0.0 | 1.0 | 0.00 | 0.00 | 0.00 | 72 | 1015.7 |
| 20260830201515 | 91 | 208 | 0.0 | 0.0 | 0.00 | 0.00 | 0.00 | 71 | 1015.6 |
| 20260830200119 | 91 | 163 | 0.0 | 0.0 | 0.00 | 0.00 | 0.00 | 71 | 1015.8 |
| 20260830194513 | 90 | 128 | 0.0 | 1.0 | 0.00 | 0.01 | 0.00 | 74 | 1016.0 |
| 20260830193011 | 90 | 70 | 0.0 | 0.0 | 0.00 | 0.01 | 0.00 | 75 | 1016.0 |
| 20260830191510 | 89 | 177 | 0.0 | 1.0 | 0.00 | 0.01 | 0.00 | 75 | 1015.9 |
| 20260830190010 | 89 | 176 | 0.0 | 3.0 | 0.00 | 0.01 | 0.00 | 75 | 1016.2 |
| 20260830184516 | 91 | 60 | 0.0 | 2.0 | 0.00 | 0.06 | 0.00 | 74 | 1016.1 |
| 20260830183007 | 91 | 96 | 0.0 | 1.0 | 0.00 | 0.06 | 0.00 | 73 | 1016.0 |
| 20260830181506 | 91 | 153 | 0.0 | 1.0 | 0.00 | 0.06 | 0.00 | 72 | 1016.3 |
| 20260830180004 | 91 | 50 | 0.0 | 0.0 | 0.00 | 0.06 | 0.00 | 74 | 1016.7 |
| 20260830174502 | 92 | 60 | 0.0 | 0.0 | 0.00 | 0.06 | 0.00 | 73 | 1016.8 |
| 20260830173001 | 91 | 167 | 0.0 | 0.0 | 0.00 | 0.06 | 0.00 | 73 | 1017.1 |
| 20260830171559 | 90 | 103 | 0.0 | 0.0 | 0.00 | 0.06 | 0.00 | 75 | 1017.1 |
| 20260830170101 | 91 | 132 | 0.0 | 1.0 | 0.00 | 0.06 | 0.00 | 74 | 1017.4 |
| 20260830164606 | 91 | 162 | 0.0 | 1.0 | 0.00 | 0.07 | 0.00 | 74 | 1017.4 |
| 20260830163110 | 90 | 94 | 0.0 | 1.0 | 0.00 | 0.07 | 0.00 | 75 | 1017.6 |
| 20260830161554 | 91 | 97 | 0.0 | 1.0 | 0.00 | 0.07 | 0.00 | 76 | 1017.6 |
| 20260830160051 | 91 | 191 | 0.0 | 0.0 | 0.00 | 0.07 | 0.00 | 75 | 1017.7 |
| 20260830154551 | 90 | 103 | 0.0 | 0.0 | 0.00 | 0.08 | 0.00 | 76 | 1017.8 |
| 20260830153052 | 91 | 77 | 0.0 | 1.0 | 0.00 | 0.08 | 0.00 | 76 | 1017.9 |
| 20260830151544 | 89 | 192 | 0.0 | 0.0 | 0.00 | 0.08 | 0.00 | 77 | 1017.8 |
| 20260830150044 | 90 | 121 | 0.0 | 1.0 | 0.00 | 0.08 | 0.00 | 72 | 1018.0 |
| 20260830144541 | 90 | 164 | 0.0 | 0.0 | 0.00 | 0.19 | 0.00 | 77 | 1018.1 |
| 20260830143040 | 88 | 145 | 0.0 | 1.0 | 0.00 | 0.19 | 0.00 | 78 | 1017.9 |
| 20260830141540 | 88 | 142 | 0.0 | 1.0 | 0.00 | 0.19 | 0.00 | 76 | 1018.0 |
| 20260830140037 | 89 | 163 | 0.0 | 1.0 | 0.00 | 0.19 | 0.00 | 75 | 1018.1 |
| 20260830134534 | 89 | 145 | 0.0 | 1.0 | 0.00 | 0.26 | 0.00 | 78 | 1017.9 |
| 20260830133029 | 87 | 150 | 0.0 | 0.0 | 0.00 | 0.26 | 0.00 | 80 | 1017.6 |
| 20260830131537 | 88 | 102 | 0.0 | 0.0 | 0.00 | 0.26 | 0.00 | 80 | 1017.5 |
| 20260830130025 | 87 | 117 | 0.0 | 1.0 | 0.00 | 0.26 | 0.00 | 82 | 1017.5 |
| 20260830124520 | 85 | 132 | 0.0 | 0.0 | 0.00 | 0.26 | 0.00 | 84 | 1017.4 |
| 20260830123020 | 85 | 116 | 0.0 | 0.0 | 0.00 | 0.26 | 0.00 | 84 | 1017.3 |
| 20260830121517 | 85 | 195 | 0.0 | 1.0 | 0.00 | 0.26 | 0.00 | 85 | 1017.3 |
| 20260830120013 | 84 | 162 | 0.0 | 0.0 | 0.00 | 0.26 | 0.00 | 86 | 1017.1 |
| 20260830114512 | 83 | 113 | 0.0 | 0.0 | 0.00 | 0.32 | 0.00 | 87 | 1017.0 |
| 20260830113005 | 0 | 0.0 | 0.0 | 0.00 | 0.32 | 0.00 | 1016.9 | ||
| 20260830111502 | 0 | 0.0 | 0.0 | 0.00 | 0.32 | 0.00 | 1016.5 | ||
| 20260830110058 | 0 | 0.0 | 0.0 | 0.00 | 0.32 | 0.00 | 1016.2 | ||
| 20260830104553 | 0 | 0.0 | 0.0 | 0.00 | 0.32 | 0.00 | 1015.8 | ||
| 20260830103049 | 0 | 0.0 | 0.0 | 0.00 | 0.32 | 0.00 | 1015.6 | ||
| 20260830101544 | 0 | 0.0 | 0.0 | 0.00 | 0.32 | 0.00 | 1015.4 | ||
| 20260830100056 | 0 | 0.0 | 0.0 | 0.00 | 0.32 | 0.00 | 1015.4 | ||
| 20260830094535 | 0 | 0.0 | 0.0 | 0.00 | 0.32 | 0.00 | 1015.3 | ||
| 20260830093031 | 0 | 0.0 | 0.0 | 0.00 | 0.32 | 0.00 | 1015.4 | ||
| 20260830091526 | 0 | 0.0 | 0.0 | 0.00 | 0.32 | 0.00 | 1015.5 | ||
| 20260830090022 | 0 | 0.0 | 0.0 | 0.00 | 0.32 | 0.00 | 1015.6 |